Charlottesville, VA (22901)

4:57 PM EDT on May 23, 2017 (GMT -0400)
Ivy - Owensville Road | | Change Station

Elev 650 ft 38.08 °N, 78.59 °W | Updated 53 seconds ago

Rain
Rain
61.3 °F
Feels Like 61.3 °F
N
0.0
Wind Variable Wind from WSW
Gusts 0.0 mph

Today
High -- | Low -- °F
--% Chance of Precip.
Yesterday
High -- | Low -- °F
Precip. -- in
Pressure 29.81 in
Visibility 2.5 miles
Clouds Overcast 1000 ft
Dew Point 59.4 °F
Humidity 93%
Rainfall 0.05 in
Snow Depth Not available.
5:57 AM 8:24 PM
Waning Crescent, 6% visible
METAR KCHO 232053Z 04008KT 2 1/2SM BR OVC010 17/14 A2982 RMK AO2 RAE05B35E47 CIG 008V012 SLP093 P0000 60000 T01670144 58023
Pressure 29.81 in
Visibility 2.5 miles
Clouds Overcast 1000 ft
Dew Point 59.4 °F
Humidity 93%
Rainfall 0.05 in
Snow Depth Not available.
5:57 AM 8:24 PM
Waning Crescent, 6% visible
METAR KCHO 232053Z 04008KT 2 1/2SM BR OVC010 17/14 A2982 RMK AO2 RAE05B35E47 CIG 008V012 SLP093 P0000 60000 T01670144 58023

Get Severe Weather Alerts

Thanks for signing up!

Be on the lookout for a verification email in your inbox.

You'll start receiving the daily forecast at 6 AM.

×

10-Day Weather Forecast

Almanac

Astronomy

May. 23, 2017 Rise Set
Actual Time
Civil Twilight
Nautical Twilight
Astronomical Twilight
Moon
Length of Visible Light
Length of Day
Tomorrow will be .
, % of the Moon is Illuminated

Today's Extremes

State Highs State Lows

Community

WunderPhotos

Category 6

Welcome to Category 6. This is the collective home for Weather Underground's featured writeups by Dr. Jeff Masters (right), Bob Henson (left), Chris Burt, and other regular contributors.

Nearby

Air Quality

  Air Quality AQ Index Pollutant
Not available.

Snow Depth

Station Depth Elevation

Earthquake Activity

City Distance Mag. Time & Date
Minimum magnitude displayed is 2.5.

Coastal Water Temperatures

Place Temperature

Stations

Nearby Weather Stations

Station Location Temp. Windchill Dew Point Humidity Wind Precip. Elev Updated Type
                   

Watches & Warnings

There are currently no watches in effect.